createdAt,value
2023-02-02T00:00:52.495Z,1.40
2023-02-02T00:03:19.251Z,1.83
2023-02-02T00:05:49.949Z,1.48
2023-02-02T00:08:18.126Z,1.27
2023-02-02T00:10:45.716Z,1.00
2023-02-02T00:13:13.303Z,1.20
2023-02-02T00:15:40.574Z,1.45
2023-02-02T00:18:08.018Z,1.33
2023-02-02T00:20:34.829Z,0.90
2023-02-02T00:23:01.837Z,1.10
2023-02-02T00:25:28.815Z,1.02
2023-02-02T00:27:55.867Z,1.10
2023-02-02T00:30:23.069Z,1.17
2023-02-02T00:32:52.363Z,1.10
2023-02-02T00:35:19.914Z,1.00
2023-02-02T00:37:46.535Z,1.13
2023-02-02T00:40:13.350Z,1.30
2023-02-02T00:42:40.017Z,0.98
2023-02-02T00:45:16.106Z,0.95
2023-02-02T00:47:44.553Z,1.30
2023-02-02T00:50:13.891Z,1.05
2023-02-02T00:52:40.573Z,1.13
2023-02-02T00:55:08.515Z,1.30
2023-02-02T00:57:35.206Z,1.00
2023-02-02T01:00:02.273Z,1.15
2023-02-02T01:02:28.941Z,0.80
2023-02-02T01:04:55.576Z,0.98
2023-02-02T01:07:22.223Z,1.23
2023-02-02T01:09:48.952Z,0.90
2023-02-02T01:12:15.635Z,1.38
2023-02-02T01:14:42.239Z,1.45
2023-02-02T01:17:09.292Z,1.20
2023-02-02T01:19:35.949Z,0.98
2023-02-02T01:22:03.597Z,0.93
2023-02-02T01:24:30.448Z,0.85
2023-02-02T01:26:57.189Z,1.08
2023-02-02T01:29:24.007Z,0.93
2023-02-02T01:31:51.699Z,1.08
2023-02-02T01:34:18.462Z,1.10
2023-02-02T01:36:45.460Z,0.70
2023-02-02T01:39:12.146Z,1.17
2023-02-02T01:41:41.056Z,1.25
2023-02-02T01:44:46.345Z,1.17
2023-02-02T01:47:14.306Z,1.25
2023-02-02T01:49:41.873Z,1.10
2023-02-02T01:52:11.269Z,1.42
2023-02-02T01:54:42.888Z,0.90
2023-02-02T01:57:21.023Z,0.73
2023-02-02T01:59:48.725Z,0.93
2023-02-02T02:02:15.959Z,1.17
2023-02-02T02:04:43.790Z,1.25
2023-02-02T02:07:11.725Z,0.85
2023-02-02T02:09:38.426Z,1.13
2023-02-02T02:12:13.409Z,0.77
2023-02-02T02:14:58.590Z,1.30
2023-02-02T02:17:49.998Z,1.25
2023-02-02T02:21:08.857Z,1.00
2023-02-02T02:24:24.461Z,0.40
2023-02-02T02:27:06.016Z,0.90
2023-02-02T02:29:57.734Z,0.82
2023-02-02T02:35:10.300Z,0.52
2023-02-02T02:37:58.383Z,0.70
2023-02-02T02:40:42.818Z,1.40
2023-02-02T02:43:18.659Z,0.57
2023-02-02T02:45:45.648Z,0.77
2023-02-02T02:48:12.372Z,1.08
2023-02-02T02:50:39.392Z,1.33
2023-02-02T02:53:11.360Z,0.75
2023-02-02T02:56:05.203Z,1.65
2023-02-02T02:58:50.774Z,1.05
2023-02-02T03:01:28.558Z,1.42
2023-02-02T03:04:16.872Z,0.95
2023-02-02T03:07:10.142Z,0.93
2023-02-02T03:09:41.693Z,0.52
2023-02-02T03:12:08.694Z,0.90
2023-02-02T03:14:37.009Z,0.73
2023-02-02T03:17:04.116Z,0.60
2023-02-02T03:19:31.086Z,0.98
2023-02-02T03:21:57.744Z,1.10
2023-02-02T03:24:24.494Z,0.90
2023-02-02T03:26:51.885Z,0.60
2023-02-02T03:29:19.035Z,0.82
2023-02-02T03:31:47.192Z,0.77
2023-02-02T03:34:13.945Z,0.88
2023-02-02T03:36:40.586Z,1.20
2023-02-02T03:39:07.276Z,0.85
2023-02-02T03:41:33.923Z,0.80
2023-02-02T03:44:00.559Z,0.75
2023-02-02T03:46:27.880Z,0.80
2023-02-02T03:48:54.554Z,1.77
2023-02-02T03:51:21.258Z,1.05
2023-02-02T03:53:48.063Z,0.63
2023-02-02T03:56:15.692Z,1.08
2023-02-02T03:58:42.360Z,1.15
2023-02-02T04:01:12.848Z,1.63
2023-02-02T04:03:39.511Z,1.00
2023-02-02T04:06:06.331Z,1.42
2023-02-02T04:08:34.119Z,0.63
2023-02-02T04:11:00.931Z,0.90
2023-02-02T04:13:27.752Z,1.17
2023-02-02T04:15:59.951Z,1.33
2023-02-02T04:18:27.465Z,0.80
2023-02-02T04:20:58.946Z,0.88
2023-02-02T04:23:26.412Z,1.33
2023-02-02T04:25:53.065Z,0.93
2023-02-02T04:28:20.545Z,0.77
2023-02-02T04:30:47.207Z,1.20
2023-02-02T04:33:13.920Z,0.98
2023-02-02T04:35:40.628Z,0.68
2023-02-02T04:38:07.353Z,1.02
2023-02-02T04:40:34.353Z,1.17
2023-02-02T04:43:01.053Z,1.13
2023-02-02T04:45:28.039Z,1.52
2023-02-02T04:47:54.900Z,0.90
2023-02-02T04:50:21.649Z,1.05
2023-02-02T04:52:48.281Z,1.30
2023-02-02T04:55:15.358Z,1.13
2023-02-02T04:57:42.095Z,1.45
2023-02-02T05:00:11.514Z,1.30
2023-02-02T05:02:40.982Z,1.40
2023-02-02T05:05:11.019Z,1.40
2023-02-02T05:07:37.805Z,1.23
2023-02-02T05:10:05.057Z,1.45
2023-02-02T05:12:31.775Z,1.65
2023-02-02T05:15:01.030Z,1.40
2023-02-02T05:17:28.247Z,1.13
2023-02-02T05:19:54.875Z,1.38
2023-02-02T05:22:21.619Z,1.10
2023-02-02T05:24:48.296Z,1.23
2023-02-02T05:27:14.902Z,1.50
2023-02-02T05:29:41.572Z,1.10
2023-02-02T05:32:08.316Z,1.45
2023-02-02T05:34:34.951Z,1.08
2023-02-02T05:37:01.681Z,1.25
2023-02-02T05:39:28.333Z,1.17
2023-02-02T05:41:54.981Z,1.70
2023-02-02T05:44:21.668Z,1.20
2023-02-02T05:46:48.288Z,0.90
2023-02-02T05:49:15.278Z,0.95
2023-02-02T05:51:46.839Z,1.50
2023-02-02T05:54:17.292Z,1.30
2023-02-02T05:56:43.905Z,1.02
2023-02-02T05:59:10.566Z,1.40
2023-02-02T06:01:37.222Z,1.27
2023-02-02T06:04:04.004Z,1.40
2023-02-02T06:06:30.702Z,1.17
2023-02-02T06:08:57.331Z,1.45
2023-02-02T06:11:24.005Z,1.67
2023-02-02T06:13:50.666Z,1.20
2023-02-02T06:16:17.406Z,1.73
2023-02-02T06:18:45.113Z,1.30
2023-02-02T06:21:12.215Z,1.05
2023-02-02T06:23:41.139Z,1.40
2023-02-02T06:26:08.251Z,1.58
2023-02-02T06:28:34.941Z,1.10
2023-02-02T06:31:10.960Z,1.20
2023-02-02T06:33:41.944Z,1.40
2023-02-02T06:36:08.662Z,1.38
2023-02-02T06:38:35.373Z,1.35
2023-02-02T06:41:02.975Z,1.05
2023-02-02T06:43:30.325Z,1.17
2023-02-02T06:46:00.225Z,1.08
2023-02-02T06:48:27.559Z,1.95
2023-02-02T06:50:54.340Z,1.35
2023-02-02T06:53:23.165Z,0.95
2023-02-02T06:55:54.797Z,1.20
2023-02-02T06:58:21.576Z,1.10
2023-02-02T07:00:48.250Z,1.25
2023-02-02T07:03:21.373Z,1.30
2023-02-02T07:05:49.295Z,1.15
2023-02-02T07:08:16.388Z,1.15
2023-02-02T07:11:14.155Z,1.35
2023-02-02T07:13:31.140Z,1.00
2023-02-02T07:15:58.255Z,1.20
2023-02-02T07:18:25.161Z,0.85
2023-02-02T07:20:51.863Z,0.80
2023-02-02T07:23:18.512Z,1.00
2023-02-02T07:25:45.158Z,0.95
2023-02-02T07:28:11.798Z,0.52
2023-02-02T07:30:38.602Z,0.90
2023-02-02T07:33:05.239Z,0.70
2023-02-02T07:35:31.966Z,0.90
2023-02-02T07:37:58.665Z,0.57
2023-02-02T07:40:25.342Z,0.82
2023-02-02T07:42:52.053Z,0.45
2023-02-02T07:45:27.333Z,0.60
2023-02-02T07:48:00.578Z,0.80
2023-02-02T07:50:28.843Z,1.73
2023-02-02T07:52:55.851Z,0.77
2023-02-02T07:55:22.603Z,0.82
2023-02-02T07:57:51.421Z,0.57
2023-02-02T08:00:18.672Z,0.70
2023-02-02T08:02:48.442Z,0.55
2023-02-02T08:05:15.252Z,0.80
2023-02-02T08:07:41.897Z,0.50
2023-02-02T08:10:09.340Z,0.80
2023-02-02T08:12:36.055Z,1.02
2023-02-02T08:15:02.814Z,0.60
2023-02-02T08:17:29.447Z,0.68
2023-02-02T08:19:56.121Z,0.57
2023-02-02T08:22:22.852Z,0.80
2023-02-02T08:24:49.552Z,0.77
2023-02-02T08:27:17.007Z,1.50
2023-02-02T08:29:44.175Z,1.38
2023-02-02T08:32:10.836Z,0.98
2023-02-02T08:34:37.784Z,1.10
2023-02-02T08:37:04.757Z,0.90
2023-02-02T08:39:31.450Z,1.15
2023-02-02T08:41:58.246Z,0.80
2023-02-02T08:44:26.899Z,1.05
2023-02-02T08:46:55.261Z,1.10
2023-02-02T08:49:21.970Z,1.20
2023-02-02T08:51:48.610Z,1.10
2023-02-02T08:54:15.297Z,0.90
2023-02-02T08:56:42.004Z,0.82
2023-02-02T08:59:08.725Z,1.00
2023-02-02T09:01:36.120Z,1.20
2023-02-02T09:04:07.617Z,1.30
2023-02-02T09:06:37.155Z,0.82
2023-02-02T09:09:06.441Z,1.23
2023-02-02T09:11:33.232Z,1.55
2023-02-02T09:14:02.103Z,0.90
2023-02-02T09:16:29.898Z,1.25
2023-02-02T09:18:57.416Z,0.98
2023-02-02T09:21:24.597Z,0.88
2023-02-02T09:23:53.741Z,1.25
2023-02-02T09:26:25.270Z,1.00
2023-02-02T09:28:58.001Z,0.90
2023-02-02T09:31:25.799Z,0.77
2023-02-02T09:33:52.694Z,1.20
2023-02-02T09:36:24.107Z,1.40
2023-02-02T09:38:51.493Z,1.05
2023-02-02T09:41:27.403Z,1.45
2023-02-02T09:44:06.111Z,1.40
2023-02-02T09:46:46.764Z,1.35
2023-02-02T09:49:22.600Z,1.35
2023-02-02T09:51:58.930Z,1.25
2023-02-02T09:54:36.713Z,1.25
2023-02-02T09:57:11.378Z,1.90
2023-02-02T09:59:41.530Z,1.60
2023-02-02T10:02:17.555Z,1.52
2023-02-02T10:04:49.097Z,1.52
2023-02-02T10:07:20.074Z,1.65
2023-02-02T10:09:57.870Z,1.52
2023-02-02T10:12:38.081Z,1.70
2023-02-02T10:15:32.494Z,1.52
2023-02-02T10:18:05.588Z,1.75
2023-02-02T10:20:41.428Z,1.52
2023-02-02T10:23:29.388Z,1.85
2023-02-02T10:26:22.508Z,1.60
2023-02-02T10:29:01.497Z,1.65
2023-02-02T10:31:48.954Z,1.67
2023-02-02T10:34:31.991Z,1.33
2023-02-02T10:37:02.622Z,1.20
2023-02-02T10:40:14.907Z,1.30
2023-02-02T10:43:23.521Z,1.20
2023-02-02T10:45:51.736Z,1.20
2023-02-02T10:48:27.380Z,1.15
2023-02-02T10:50:56.751Z,1.40
2023-02-02T10:53:28.736Z,1.42
2023-02-02T10:56:14.134Z,1.20
2023-02-02T10:59:06.118Z,1.38
2023-02-02T11:01:33.068Z,1.45
2023-02-02T11:04:18.287Z,1.55
2023-02-02T11:06:51.494Z,1.65
2023-02-02T11:09:21.548Z,1.52
2023-02-02T11:11:57.304Z,1.70
2023-02-02T11:14:45.205Z,2.30
2023-02-02T11:17:24.399Z,1.80
2023-02-02T11:19:52.406Z,2.78
2023-02-02T11:22:33.892Z,2.40
2023-02-02T11:25:06.949Z,2.58
2023-02-02T11:27:39.540Z,2.95
2023-02-02T11:30:35.871Z,3.10
2023-02-02T11:33:27.014Z,2.85
2023-02-02T11:35:59.530Z,3.47
2023-02-02T11:38:27.555Z,3.50
2023-02-02T11:41:09.160Z,2.97
2023-02-02T11:43:41.901Z,2.85
2023-02-02T11:46:20.393Z,2.75
2023-02-02T11:48:49.630Z,3.55
2023-02-02T11:51:23.529Z,3.58
2023-02-02T11:53:59.908Z,6.03
2023-02-02T11:56:27.246Z,3.60
2023-02-02T11:58:56.507Z,2.88
2023-02-02T12:01:35.629Z,3.15
2023-02-02T12:06:35.574Z,3.38
2023-02-02T12:09:11.999Z,2.72
2023-02-02T12:12:02.796Z,2.95
2023-02-02T12:15:08.151Z,3.08
2023-02-02T12:17:42.960Z,3.22
2023-02-02T12:20:45.772Z,2.80
2023-02-02T12:23:36.753Z,3.50
2023-02-02T12:26:09.107Z,2.25
2023-02-02T12:29:03.667Z,2.95
2023-02-02T12:31:59.212Z,3.22
2023-02-02T12:34:40.953Z,3.95
2023-02-02T12:37:27.894Z,3.40
2023-02-02T12:40:16.216Z,4.00
2023-02-02T12:43:20.569Z,3.50
2023-02-02T12:46:11.828Z,4.32
2023-02-02T12:48:41.493Z,3.55
2023-02-02T12:51:14.115Z,3.47
2023-02-02T12:54:32.546Z,3.80
2023-02-02T12:57:07.737Z,3.90
2023-02-02T13:00:06.204Z,3.17
2023-02-02T13:03:01.195Z,3.30
2023-02-02T13:06:00.858Z,3.22
2023-02-02T13:09:00.985Z,3.70
2023-02-02T13:11:52.251Z,3.17
2023-02-02T13:14:30.775Z,3.05
2023-02-02T13:17:02.390Z,3.17
2023-02-02T13:19:38.448Z,2.97
2023-02-02T13:22:08.746Z,3.25
2023-02-02T13:24:38.741Z,3.80
2023-02-02T13:27:11.140Z,3.60
2023-02-02T13:29:47.810Z,3.05
2023-02-02T13:32:19.320Z,3.78
2023-02-02T13:35:13.013Z,3.33
2023-02-02T13:37:43.265Z,3.03
2023-02-02T13:40:34.799Z,3.47
2023-02-02T13:43:34.036Z,3.42
2023-02-02T13:46:06.937Z,3.10
2023-02-02T13:48:51.723Z,4.00
2023-02-02T13:51:44.380Z,3.20
2023-02-02T13:54:27.707Z,3.88
2023-02-02T13:57:13.012Z,3.33
2023-02-02T13:59:51.664Z,2.88
2023-02-02T14:02:33.482Z,2.78
2023-02-02T14:05:03.609Z,15.65
2023-02-02T14:07:41.537Z,5.50
2023-02-02T14:10:24.251Z,14.32
2023-02-02T14:12:51.317Z,13.07
2023-02-02T14:15:18.556Z,4.18
2023-02-02T14:17:47.043Z,2.22
2023-02-02T14:20:40.594Z,2.00
2023-02-02T14:23:45.047Z,2.45
2023-02-02T14:26:11.818Z,2.60
2023-02-02T14:28:47.543Z,2.95
2023-02-02T14:31:40.856Z,3.03
2023-02-02T14:34:28.922Z,2.85
2023-02-02T14:37:28.811Z,3.10
2023-02-02T14:40:10.515Z,3.03
2023-02-02T14:43:17.489Z,2.60
2023-02-02T14:45:48.028Z,3.00
2023-02-02T14:48:20.519Z,2.10
2023-02-02T14:50:58.793Z,2.00
2023-02-02T14:53:33.626Z,2.10
2023-02-02T14:56:14.399Z,1.98
2023-02-02T14:58:48.330Z,5.15
2023-02-02T15:01:18.172Z,3.53
2023-02-02T15:03:57.394Z,2.10
2023-02-02T15:06:40.538Z,1.80
2023-02-02T15:09:23.361Z,1.95
2023-02-02T15:12:01.111Z,1.85
2023-02-02T15:14:59.379Z,2.13
2023-02-02T15:17:41.303Z,2.97
2023-02-02T15:20:28.170Z,2.22
2023-02-02T15:23:22.403Z,1.70
2023-02-02T15:25:55.024Z,1.75
2023-02-02T15:28:44.434Z,2.10
2023-02-02T15:31:11.208Z,1.73
2023-02-02T15:33:41.687Z,1.85
2023-02-02T15:36:25.386Z,2.00
2023-02-02T15:39:23.702Z,2.17
2023-02-02T15:42:11.752Z,3.03
2023-02-02T15:44:41.955Z,2.08
2023-02-02T15:47:15.742Z,2.75
2023-02-02T15:49:42.824Z,1.88
2023-02-02T15:52:21.838Z,2.17
2023-02-02T15:57:40.518Z,1.92
2023-02-02T16:00:28.053Z,2.10
2023-02-02T16:03:14.731Z,2.70
2023-02-02T16:05:48.715Z,2.47
2023-02-02T16:08:19.654Z,2.60
2023-02-02T16:10:49.330Z,2.13
2023-02-02T16:13:29.550Z,2.20
2023-02-02T16:16:01.756Z,2.78
2023-02-02T16:18:29.853Z,2.22
2023-02-02T16:20:59.503Z,2.83
2023-02-02T16:23:32.055Z,2.53
2023-02-02T16:26:00.537Z,2.53
2023-02-02T16:28:27.728Z,2.13
2023-02-02T16:30:55.291Z,2.35
2023-02-02T16:33:41.107Z,2.05
2023-02-02T16:36:25.210Z,2.10
2023-02-02T16:38:53.215Z,2.13
2023-02-02T16:41:27.464Z,2.08
2023-02-02T16:43:54.524Z,2.97
2023-02-02T16:46:45.635Z,2.38
2023-02-02T16:49:23.368Z,2.70
2023-02-02T16:52:13.064Z,2.45
2023-02-02T16:54:45.191Z,3.08
2023-02-02T16:57:21.684Z,3.13
2023-02-02T16:59:52.894Z,3.13
2023-02-02T17:02:24.446Z,4.05
2023-02-02T17:05:14.745Z,4.00
2023-02-02T17:07:48.939Z,4.07
2023-02-02T17:10:38.697Z,4.63
2023-02-02T17:13:30.422Z,4.60
2023-02-02T17:18:25.179Z,4.95
2023-02-02T17:20:57.736Z,5.55
2023-02-02T17:23:27.343Z,5.28
2023-02-02T17:25:55.043Z,5.97
2023-02-02T17:28:24.887Z,5.95
2023-02-02T17:31:12.573Z,6.45
2023-02-02T17:33:40.486Z,6.72
2023-02-02T17:36:08.184Z,6.60
2023-02-02T17:38:34.924Z,7.85
2023-02-02T17:41:03.223Z,7.00
2023-02-02T17:43:31.830Z,7.30
2023-02-02T17:45:59.246Z,6.97
2023-02-02T17:48:26.028Z,7.18
2023-02-02T17:50:52.777Z,7.70
2023-02-02T17:53:21.197Z,7.40
2023-02-02T17:55:53.324Z,7.05
2023-02-02T17:58:20.027Z,7.80
2023-02-02T18:00:51.180Z,7.90
2023-02-02T18:03:30.523Z,7.75
2023-02-02T18:06:00.513Z,7.70
2023-02-02T18:08:28.615Z,7.80
2023-02-02T18:10:55.438Z,6.85
2023-02-02T18:13:23.875Z,8.35
2023-02-02T18:15:53.928Z,8.98
2023-02-02T18:18:20.963Z,8.55
2023-02-02T18:20:50.548Z,8.95
2023-02-02T18:23:18.827Z,8.80
2023-02-02T18:25:45.989Z,8.27
2023-02-02T18:28:17.111Z,8.10
2023-02-02T18:30:44.897Z,8.35
2023-02-02T18:33:13.205Z,9.05
2023-02-02T18:35:44.544Z,7.75
2023-02-02T18:38:11.575Z,7.38
2023-02-02T18:40:38.531Z,8.30
2023-02-02T18:43:05.190Z,7.72
2023-02-02T18:45:31.860Z,8.15
2023-02-02T18:47:58.575Z,6.90
2023-02-02T18:50:25.457Z,8.13
2023-02-02T18:52:52.143Z,7.55
2023-02-02T18:55:19.093Z,9.13
2023-02-02T18:57:45.803Z,8.25
2023-02-02T19:00:13.033Z,7.47
2023-02-02T19:02:39.742Z,8.23
2023-02-02T19:05:26.489Z,8.68
2023-02-02T19:07:56.548Z,7.28
2023-02-02T19:10:25.559Z,8.30
2023-02-02T19:12:57.271Z,8.60
2023-02-02T19:15:26.609Z,7.70
2023-02-02T19:17:55.357Z,9.13
2023-02-02T19:20:27.309Z,8.95
2023-02-02T19:23:11.715Z,9.00
2023-02-02T19:25:41.145Z,9.07
2023-02-02T19:28:28.955Z,10.27
2023-02-02T19:30:58.345Z,10.07
2023-02-02T19:33:40.063Z,9.43
2023-02-02T19:36:15.290Z,10.23
2023-02-02T19:38:42.140Z,9.65
2023-02-02T19:41:20.686Z,8.55
2023-02-02T19:43:49.041Z,10.48
2023-02-02T19:46:20.803Z,9.07
2023-02-02T19:48:51.626Z,10.35
2023-02-02T19:51:37.554Z,8.75
2023-02-02T19:54:12.733Z,9.38
2023-02-02T19:56:42.204Z,10.15
2023-02-02T19:59:18.296Z,9.93
2023-02-02T20:01:47.821Z,10.75
2023-02-02T20:04:15.733Z,9.98
2023-02-02T20:06:57.129Z,9.98
2023-02-02T20:09:29.727Z,8.90
2023-02-02T20:11:56.660Z,8.88
2023-02-02T20:14:32.311Z,8.35
2023-02-02T20:17:08.241Z,9.82
2023-02-02T20:19:41.355Z,9.68
2023-02-02T20:22:34.564Z,10.52
2023-02-02T20:25:06.335Z,9.23
2023-02-02T20:27:34.042Z,10.93
2023-02-02T20:30:18.341Z,9.90
2023-02-02T20:32:51.071Z,8.95
2023-02-02T20:35:37.152Z,10.27
2023-02-02T20:38:24.700Z,10.02
2023-02-02T20:40:52.170Z,10.65
2023-02-02T20:43:18.817Z,9.77
2023-02-02T20:45:45.928Z,10.98
2023-02-02T20:48:12.907Z,10.27
2023-02-02T20:50:40.346Z,10.75
2023-02-02T20:53:07.121Z,10.80
2023-02-02T20:55:36.150Z,10.27
2023-02-02T20:58:06.192Z,10.80
2023-02-02T21:00:33.038Z,10.90
2023-02-02T21:02:59.773Z,10.25
2023-02-02T21:05:26.645Z,11.13
2023-02-02T21:07:54.936Z,10.65
2023-02-02T21:10:27.262Z,9.88
2023-02-02T21:12:54.726Z,9.98
2023-02-02T21:15:21.418Z,9.82
2023-02-02T21:17:48.055Z,9.70
2023-02-02T21:20:15.153Z,9.90
2023-02-02T21:22:41.849Z,8.57
2023-02-02T21:25:09.290Z,9.88
2023-02-02T21:27:36.305Z,9.77
2023-02-02T21:30:03.686Z,9.52
2023-02-02T21:32:30.406Z,9.10
2023-02-02T21:34:58.846Z,8.68
2023-02-02T21:37:25.489Z,9.68
2023-02-02T21:39:57.617Z,9.43
2023-02-02T21:42:26.021Z,8.82
2023-02-02T21:44:57.300Z,8.18
2023-02-02T21:47:32.296Z,8.13
2023-02-02T21:50:22.479Z,9.27
2023-02-02T21:52:49.481Z,7.80
2023-02-02T21:55:34.575Z,8.45
2023-02-02T21:58:14.018Z,7.97
2023-02-02T22:00:40.883Z,8.70
2023-02-02T22:03:28.090Z,8.27
2023-02-02T22:06:21.079Z,9.77
2023-02-02T22:08:49.238Z,8.80
2023-02-02T22:11:29.377Z,8.32
2023-02-02T22:14:13.565Z,9.38
2023-02-02T22:16:45.351Z,9.02
2023-02-02T22:19:25.185Z,9.48
2023-02-02T22:21:52.445Z,8.82
2023-02-02T22:24:19.187Z,8.57
2023-02-02T22:26:47.573Z,9.15
2023-02-02T22:29:17.821Z,9.05
2023-02-02T22:31:44.517Z,10.45
2023-02-02T22:34:11.201Z,9.75
2023-02-02T22:36:38.136Z,8.50
2023-02-02T22:39:05.322Z,8.30
2023-02-02T22:41:32.097Z,7.05
2023-02-02T22:43:58.777Z,6.88
2023-02-02T22:46:25.440Z,6.13
2023-02-02T22:48:52.105Z,6.25
2023-02-02T22:51:18.772Z,5.80
2023-02-02T22:53:45.549Z,5.82
2023-02-02T22:56:12.219Z,5.63
2023-02-02T22:58:39.273Z,5.15
2023-02-02T23:01:05.969Z,5.60
2023-02-02T23:03:32.736Z,6.13
2023-02-02T23:05:59.429Z,5.40
2023-02-02T23:08:26.114Z,5.75
2023-02-02T23:10:52.840Z,5.93
2023-02-02T23:13:20.268Z,6.40
2023-02-02T23:15:46.910Z,5.63
2023-02-02T23:18:13.589Z,5.35
2023-02-02T23:20:40.284Z,6.03
2023-02-02T23:23:06.987Z,6.45
2023-02-02T23:25:33.674Z,7.28
2023-02-02T23:28:00.378Z,6.40
2023-02-02T23:30:27.327Z,6.47
2023-02-02T23:32:54.150Z,5.97
2023-02-02T23:35:20.872Z,6.72
2023-02-02T23:37:47.805Z,6.13
2023-02-02T23:40:14.501Z,5.88
2023-02-02T23:42:41.196Z,7.45
2023-02-02T23:45:08.344Z,6.75
2023-02-02T23:47:35.168Z,6.97
2023-02-02T23:50:07.325Z,6.50
2023-02-02T23:52:34.802Z,6.82
2023-02-02T23:55:02.371Z,7.38
2023-02-02T23:57:29.467Z,7.88
2023-02-02T23:59:56.295Z,8.02
